Stillman Valley, IL

8:56 AM CDT on April 21, 2015 (GMT -0500)
Highland Elementary | | Change Station
CLOSE
Current Station
Personal Weather Station
Location: Stillman Valley, IL
Elevation: 755 ft
Nearby Weather Stations
Active Advisory: Wind Advisory

Elev 755 ft 42.10 °N, 89.18 °W | Updated 1 minute ago

Mostly Cloudy
Mostly Cloudy
43.2 °F
Feels Like 40 °F
N
6.0
Wind Variable Wind from West
Gusts 12.0 mph

Today
High -- | Low -- °F
--% Chance of Precip.
Yesterday
High -- | Low -- °F
Precip. -- in
6:07 AM 7:44 PM
Waxing Crescent, 10% visible
Pressure 29.63 in
Visibility 10.0 miles
Clouds Mostly Cloudy 4800 ft
Windchill 40 °F
Dew Point 33 °F
Humidity 66%
Rainfall 0.00 in
Snow Depth Not available.
UV 1 out of 12
Pollen 10.80 out of 12
Air Quality Not available.
Flu Activity Regional
METAR KRFD 211254Z 25016G22KT 10SM BKN048 05/M02 A2962 RMK AO2 SLP034 T00501017

More Conditions Fewer Conditions

Pressure 29.63 in
Visibility 10.0 miles
Clouds Mostly Cloudy 4800 ft
Windchill 40 °F
Dew Point 33 °F
Humidity 66%
Rainfall 0.00 in
Snow Depth Not available.
UV 1 out of 12
Pollen 10.80 out of 12
Air Quality Not available.
Flu Activity Regional
METAR KRFD 211254Z 25016G22KT 10SM BKN048 05/M02 A2962 RMK AO2 SLP034 T00501017

More Conditions Fewer Conditions

10-Day Weather Forecast

Almanac

Astronomy

Apr. 21, 2015 Rise Set
Actual Time
Civil Twilight
Nautical Twilight
Astronomical Twilight
Moon
Length of Visible Light
Length of Day
Tomorrow will be .
, % of the Moon is Illuminated

Today's Extremes

State Highs State Lows

Community

WunderPhotos

Upload Photos

1,815,383 photos uploaded!

WunderBlogs® & News

Nearby

Air Quality

  Air Quality AQ Index Pollutant
Not available.

Snow Depth

Station Depth Elevation

Earthquake Activity

City Distance Mag. Time & Date
Minimum magnitude displayed is 2.5.

Coastal Water Temperatures

Place Temperature

Stations

Nearby Weather Stations

Station Location Temp. Windchill Dew Point Humidity Wind Precip. Elev Updated Type
                   
Wind Advisory
Statement as of 3:16 AM CDT on April 21, 2015

... Wind Advisory in effect from 11 am CDT /noon EDT/ this morning
to 7 PM CDT /8 PM EDT/ this evening...

The National Weather Service in Chicago has issued a Wind
Advisory... which is in effect from 11 am CDT /noon EDT/ this
morning to 7 PM CDT /8 PM EDT/ this evening.

* Timing... late morning through late afternoon today.

* Winds... west 25 to 35 mph with frequent gusts to 45 mph. A few
gusts to 50 mph possible.

* Impacts... driving can become difficult... especially for north-
south oriented roads and high profile vehicles. Small tree limbs
are susceptible at wind gusts of this magnitude.

Precautionary/preparedness actions...

A Wind Advisory means that sustained winds of 30 mph or frequent
gusts of 45 mph or higher are expected. Winds this strong can
make driving difficult... especially for high profile vehicles. Use
extra caution.



Kmd